Private Wetterstation Wechselburg
Wetterdaten: Mittwoch, 26.06.2013
Datum Zeit Temp. +2m Bodentemp. Temp.+5cm Temp. Wind Windchill X Diff Temp. Feuchte +2m Feuchte +5cm Sonnenschein Luftdruck Regen Wind Richtung Richtung Sonnenschein UV Taupunkt Windchill Windben
26.06.2013 00:00 9,7 C 23,5 C 10,9 C 9,9 C 9,9 C 0,2 C 90 % 89 % 0 % 1020,2 hPa 0,0 l/m 4,8 km/h (1 Bft) W 270 0 min 0,0 UV-I 8,1 C 9,7 C 7,1 km/h (2 Bft)
26.06.2013 00:05 9,6 C 23,6 C 10,9 C 9,9 C 9,9 C 0,3 C 90 % 90 % 0 % 1020,2 hPa 0,0 l/m 4,8 km/h (1 Bft) W-SW 247 0 min 0,0 UV-I 8,0 C 9,7 C 4,8 km/h (1 Bft)
26.06.2013 00:10 9,6 C 23,5 C 10,8 C 9,8 C 9,8 C 0,2 C 90 % 90 % 0 % 1020,2 hPa 0,0 l/m 5,3 km/h (1 Bft) W-SW 247 0 min 0,0 UV-I 8,0 C 9,4 C 6,0 km/h (2 Bft)
26.06.2013 00:15 9,5 C 23,5 C 10,8 C 9,7 C 9,7 C 0,2 C 90 % 90 % 0 % 1020,5 hPa 0,0 l/m 5,6 km/h (1 Bft) SW 225 0 min 0,0 UV-I 7,9 C 9,2 C 6,6 km/h (2 Bft)
26.06.2013 00:20 9,5 C 23,5 C 10,8 C 9,9 C 9,9 C 0,4 C 90 % 90 % 0 % 1020,5 hPa 0,0 l/m 4,5 km/h (1 Bft) W-SW 247 0 min 0,0 UV-I 7,9 C 9,9 C 5,5 km/h (1 Bft)
26.06.2013 00:25 9,4 C 23,5 C 10,8 C 10,0 C 10,0 C 0,6 C 90 % 90 % 0 % 1020,5 hPa 0,0 l/m 3,9 km/h (1 Bft) W-NW 292 0 min 0,0 UV-I 7,8 C 10,0 C 4,2 km/h (1 Bft)
26.06.2013 00:30 9,5 C 23,5 C 10,8 C 10,0 C 10,0 C 0,5 C 90 % 90 % 0 % 1020,5 hPa 0,0 l/m 3,7 km/h (1 Bft) S-SW 202 0 min 0,0 UV-I 7,9 C 10,0 C 6,8 km/h (2 Bft)
26.06.2013 00:35 9,5 C 23,5 C 10,8 C 10,0 C 10,0 C 0,5 C 90 % 90 % 0 % 1020,5 hPa 0,0 l/m 3,7 km/h (1 Bft) W 270 0 min 0,0 UV-I 7,9 C 10,0 C 6,8 km/h (2 Bft)
26.06.2013 00:41 9,5 C 23,5 C 10,8 C 10,0 C 10,0 C 0,5 C 90 % 90 % 0 % 1020,5 hPa 0,0 l/m 3,5 km/h (1 Bft) N 0 0 min 0,0 UV-I 7,9 C 10,0 C 4,2 km/h (1 Bft)
26.06.2013 00:57 9,3 C 23,5 C 10,7 C 9,9 C 9,9 C 0,6 C 90 % 90 % 0 % 1020,3 hPa 0,0 l/m 4,0 km/h (1 Bft) S-SW 202 0 min 0,0 UV-I 7,7 C 9,9 C 3,7 km/h (1 Bft)
26.06.2013 00:58 9,3 C 23,5 C 10,7 C 9,9 C 9,9 C 0,6 C 90 % 90 % 0 % 1020,3 hPa 0,0 l/m 4,0 km/h (1 Bft) S-SW 202 0 min 0,0 UV-I 7,7 C 9,9 C 3,7 km/h (1 Bft)
26.06.2013 01:05 9,3 C 23,5 C 10,7 C 9,9 C 9,9 C 0,6 C 90 % 90 % 0 % 1020,3 hPa 0,0 l/m 3,7 km/h (1 Bft) W-SW 247 0 min 0,0 UV-I 7,7 C 9,9 C 4,0 km/h (1 Bft)
26.06.2013 01:10 9,2 C 23,4 C 10,6 C 9,9 C 9,9 C 0,7 C 90 % 90 % 0 % 1020,3 hPa 0,0 l/m 3,9 km/h (1 Bft) W-SW 247 0 min 0,0 UV-I 7,6 C 9,9 C 8,5 km/h (2 Bft)
26.06.2013 01:15 9,2 C 23,4 C 10,6 C 9,9 C 9,9 C 0,7 C 90 % 90 % 0 % 1020,1 hPa 0,0 l/m 4,0 km/h (1 Bft) W-SW 247 0 min 0,0 UV-I 7,6 C 9,9 C 5,0 km/h (1 Bft)
26.06.2013 01:20 9,2 C 23,4 C 10,6 C 9,9 C 9,9 C 0,7 C 90 % 90 % 0 % 1020,1 hPa 0,0 l/m 4,0 km/h (1 Bft) S 180 0 min 0,0 UV-I 7,6 C 9,9 C 8,7 km/h (2 Bft)
26.06.2013 01:25 9,3 C 23,4 C 10,7 C 9,9 C 9,9 C 0,6 C 90 % 90 % 0 % 1020,1 hPa 0,0 l/m 3,9 km/h (1 Bft) W-SW 247 0 min 0,0 UV-I 7,7 C 9,9 C 4,3 km/h (1 Bft)
26.06.2013 01:30 9,3 C 23,4 C 10,7 C 9,6 C 9,6 C 0,3 C 90 % 90 % 0 % 1020,1 hPa 0,0 l/m 4,7 km/h (1 Bft) SW 225 0 min 0,0 UV-I 7,7 C 9,4 C 13,0 km/h (3 Bft)
26.06.2013 01:35 9,2 C 23,4 C 10,7 C 9,6 C 9,6 C 0,4 C 90 % 90 % 0 % 1020,4 hPa 0,0 l/m 4,8 km/h (1 Bft) NW 315 0 min 0,0 UV-I 7,6 C 9,4 C 6,4 km/h (2 Bft)
26.06.2013 01:40 9,2 C 23,4 C 10,6 C 9,8 C 9,8 C 0,6 C 90 % 90 % 0 % 1020,4 hPa 0,0 l/m 4,2 km/h (1 Bft) SW 225 0 min 0,0 UV-I 7,6 C 9,8 C 3,9 km/h (1 Bft)
26.06.2013 01:45 9,2 C 23,4 C 10,5 C 9,8 C 9,8 C 0,6 C 90 % 90 % 0 % 1020,4 hPa 0,0 l/m 4,0 km/h (1 Bft) N-NW 337 0 min 0,0 UV-I 7,6 C 9,8 C 6,9 km/h (2 Bft)
26.06.2013 01:50 9,1 C 23,4 C 10,5 C 9,8 C 9,8 C 0,7 C 90 % 90 % 0 % 1020,4 hPa 0,0 l/m 4,0 km/h (1 Bft) W-SW 247 0 min 0,0 UV-I 7,5 C 9,8 C 4,0 km/h (1 Bft)
26.06.2013 01:55 9,1 C 23,4 C 10,5 C 9,7 C 9,7 C 0,6 C 90 % 90 % 0 % 1020,5 hPa 0,0 l/m 3,9 km/h (1 Bft) W-SW 247 0 min 0,0 UV-I 7,5 C 9,7 C 4,3 km/h (1 Bft)
26.06.2013 02:00 9,1 C 23,4 C 10,5 C 9,7 C 9,7 C 0,6 C 90 % 90 % 0 % 1020,5 hPa 0,7 l/m 3,7 km/h (1 Bft) S-SO 157 0 min 0,0 UV-I 7,5 C 9,7 C 2,9 km/h (1 Bft)
26.06.2013 02:05 9,1 C 23,4 C 10,5 C 9,7 C 9,7 C 0,6 C 90 % 90 % 0 % 1020,5 hPa 0,0 l/m 3,9 km/h (1 Bft) W-SW 247 0 min 0,0 UV-I 7,5 C 9,7 C 10,1 km/h (2 Bft)
26.06.2013 02:10 9,0 C 23,4 C 10,4 C 9,7 C 9,7 C 0,7 C 90 % 90 % 0 % 1020,5 hPa 0,0 l/m 3,9 km/h (1 Bft) S-SW 202 0 min 0,0 UV-I 7,4 C 9,7 C 5,3 km/h (1 Bft)
26.06.2013 02:15 9,1 C 23,4 C 10,4 C 9,7 C 9,7 C 0,6 C 90 % 90 % 0 % 1020,1 hPa 0,0 l/m 4,3 km/h (1 Bft) W 270 0 min 0,0 UV-I 7,5 C 9,7 C 3,4 km/h (1 Bft)
26.06.2013 02:20 9,1 C 23,4 C 10,4 C 9,6 C 9,6 C 0,5 C 90 % 90 % 0 % 1020,1 hPa 0,0 l/m 4,5 km/h (1 Bft) SW 225 0 min 0,0 UV-I 7,5 C 9,6 C 4,5 km/h (1 Bft)
26.06.2013 02:25 9,1 C 23,3 C 10,4 C 9,6 C 9,6 C 0,5 C 90 % 90 % 0 % 1020,1 hPa 0,0 l/m 4,5 km/h (1 Bft) SW 225 0 min 0,0 UV-I 7,5 C 9,6 C 4,8 km/h (1 Bft)
26.06.2013 02:30 9,1 C 23,3 C 10,5 C 9,4 C 9,4 C 0,3 C 90 % 90 % 0 % 1020,1 hPa 0,0 l/m 4,7 km/h (1 Bft) S 180 0 min 0,0 UV-I 7,5 C 9,2 C 4,2 km/h (1 Bft)
26.06.2013 02:35 9,0 C 23,3 C 10,4 C 9,3 C 9,3 C 0,3 C 90 % 90 % 0 % 1020,1 hPa 0,7 l/m 5,0 km/h (1 Bft) S 180 0 min 0,0 UV-I 7,4 C 9,0 C 14,5 km/h (3 Bft)
26.06.2013 02:40 8,9 C 23,3 C 10,4 C 9,3 C 9,3 C 0,4 C 90 % 90 % 0 % 1020,1 hPa 0,0 l/m 5,0 km/h (1 Bft) SW 225 0 min 0,0 UV-I 7,4 C 9,0 C 11,7 km/h (2 Bft)
26.06.2013 02:45 8,9 C 23,3 C 10,3 C 9,2 C 9,2 C 0,3 C 90 % 90 % 0 % 1020,1 hPa 0,0 l/m 5,3 km/h (1 Bft) SW 225 0 min 0,0 UV-I 7,4 C 8,8 C 8,0 km/h (2 Bft)
26.06.2013 02:50 8,9 C 23,3 C 10,3 C 9,2 C 9,2 C 0,3 C 90 % 90 % 0 % 1020,1 hPa 0,0 l/m 4,8 km/h (1 Bft) S 180 0 min 0,0 UV-I 7,4 C 8,9 C 4,3 km/h (1 Bft)
26.06.2013 02:55 8,9 C 23,3 C 10,3 C 9,4 C 9,4 C 0,5 C 90 % 90 % 0 % 1020,0 hPa 0,0 l/m 4,3 km/h (1 Bft) S 180 0 min 0,0 UV-I 7,4 C 9,4 C 7,7 km/h (2 Bft)
26.06.2013 03:00 8,9 C 23,3 C 10,3 C 9,4 C 9,4 C 0,5 C 90 % 90 % 0 % 1020,0 hPa 0,7 l/m 4,2 km/h (1 Bft) SW 225 0 min 0,0 UV-I 7,4 C 9,4 C 4,8 km/h (1 Bft)
26.06.2013 03:05 8,8 C 23,3 C 10,3 C 9,4 C 9,4 C 0,6 C 90 % 90 % 0 % 1020,0 hPa 0,0 l/m 4,3 km/h (1 Bft) W 270 0 min 0,0 UV-I 7,3 C 9,4 C 6,9 km/h (2 Bft)
26.06.2013 03:10 8,8 C 23,3 C 10,3 C 9,3 C 9,3 C 0,5 C 90 % 90 % 0 % 1020,0 hPa 0,0 l/m 4,7 km/h (1 Bft) SW 225 0 min 0,0 UV-I 7,3 C 9,1 C 8,9 km/h (2 Bft)
26.06.2013 03:15 8,8 C 23,3 C 10,3 C 9,3 C 9,3 C 0,5 C 90 % 90 % 0 % 1020,0 hPa 0,0 l/m 4,5 km/h (1 Bft) SW 225 0 min 0,0 UV-I 7,3 C 9,3 C 4,8 km/h (1 Bft)
26.06.2013 03:20 8,8 C 23,3 C 10,3 C 9,3 C 9,3 C 0,5 C 91 % 90 % 0 % 1020,0 hPa 0,0 l/m 4,5 km/h (1 Bft) S-SW 202 0 min 0,0 UV-I 7,4 C 9,3 C 7,4 km/h (2 Bft)
26.06.2013 03:25 8,8 C 23,3 C 10,2 C 9,5 C 9,5 C 0,7 C 91 % 90 % 0 % 1020,0 hPa 0,0 l/m 3,9 km/h (1 Bft) W 270 0 min 0,0 UV-I 7,4 C 9,5 C 4,7 km/h (1 Bft)
26.06.2013 03:30 8,8 C 23,2 C 10,1 C 9,2 C 9,2 C 0,4 C 91 % 90 % 0 % 1020,0 hPa 0,0 l/m 4,7 km/h (1 Bft) W-SW 247 0 min 0,0 UV-I 7,4 C 8,9 C 7,4 km/h (2 Bft)
26.06.2013 03:35 8,7 C 23,2 C 10,1 C 8,9 C 8,9 C 0,2 C 91 % 90 % 0 % 1019,9 hPa 0,7 l/m 5,3 km/h (1 Bft) W-SW 247 0 min 0,0 UV-I 7,3 C 8,4 C 4,8 km/h (1 Bft)
26.06.2013 03:40 8,7 C 23,2 C 10,0 C 8,7 C 8,7 C 0,0 C 91 % 90 % 0 % 1019,9 hPa 0,0 l/m 5,6 km/h (1 Bft) W-SW 247 0 min 0,0 UV-I 7,3 C 8,1 C 4,2 km/h (1 Bft)
26.06.2013 03:45 8,7 C 23,2 C 10,1 C 8,8 C 8,8 C 0,1 C 91 % 90 % 0 % 1019,9 hPa 0,0 l/m 5,3 km/h (1 Bft) W 270 0 min 0,0 UV-I 7,3 C 8,3 C 10,5 km/h (2 Bft)
26.06.2013 03:50 8,6 C 23,2 C 10,0 C 9,0 C 9,0 C 0,4 C 91 % 90 % 0 % 1019,9 hPa 0,0 l/m 4,8 km/h (1 Bft) W-SW 247 0 min 0,0 UV-I 7,2 C 8,7 C 4,3 km/h (1 Bft)
26.06.2013 03:55 8,7 C 23,2 C 10,1 C 9,0 C 9,0 C 0,3 C 91 % 90 % 0 % 1019,9 hPa 0,0 l/m 4,5 km/h (1 Bft) W-SW 247 0 min 0,0 UV-I 7,3 C 9,0 C 6,1 km/h (2 Bft)
26.06.2013 04:00 8,6 C 23,1 C 10,0 C 8,8 C 8,8 C 0,2 C 90 % 90 % 0 % 1019,9 hPa 0,0 l/m 5,1 km/h (1 Bft) S 180 0 min 0,0 UV-I 7,1 C 8,4 C 6,3 km/h (2 Bft)
26.06.2013 04:05 8,6 C 23,1 C 9,9 C 8,7 C 8,7 C 0,1 C 90 % 90 % 0 % 1019,9 hPa 0,7 l/m 5,6 km/h (1 Bft) S 180 0 min 0,0 UV-I 7,1 C 8,1 C 9,8 km/h (2 Bft)
26.06.2013 04:10 8,7 C 23,1 C 9,9 C 8,8 C 8,8 C 0,1 C 90 % 90 % 0 % 1019,9 hPa 0,0 l/m 4,7 km/h (1 Bft) W-NW 292 0 min 0,0 UV-I 7,2 C 8,5 C 8,2 km/h (2 Bft)
26.06.2013 04:15 8,7 C 23,1 C 9,9 C 8,9 C 8,9 C 0,2 C 90 % 90 % 0 % 1019,9 hPa 0,0 l/m 4,5 km/h (1 Bft) S-SW 202 0 min 0,0 UV-I 7,2 C 8,9 C 8,0 km/h (2 Bft)
26.06.2013 04:20 8,6 C 23,1 C 9,9 C 8,9 C 8,9 C 0,3 C 90 % 90 % 0 % 1019,9 hPa 0,0 l/m 4,5 km/h (1 Bft) W 270 0 min 0,0 UV-I 7,1 C 8,9 C 5,0 km/h (1 Bft)
26.06.2013 04:25 8,5 C 23,0 C 9,9 C 8,9 C 8,9 C 0,4 C 90 % 90 % 0 % 1019,9 hPa 0,0 l/m 4,5 km/h (1 Bft) W-SW 247 0 min 0,0 UV-I 7,0 C 8,9 C 9,5 km/h (2 Bft)
26.06.2013 04:30 8,5 C 23,1 C 9,8 C 9,0 C 9,0 C 0,5 C 90 % 90 % 0 % 1019,9 hPa 0,0 l/m 3,9 km/h (1 Bft) SO 135 0 min 0,0 UV-I 7,0 C 9,0 C 5,5 km/h (1 Bft)
26.06.2013 04:35 8,5 C 23,0 C 9,9 C 9,1 C 9,1 C 0,6 C 90 % 90 % 0 % 1019,8 hPa 0,7 l/m 4,0 km/h (1 Bft) W-SW 247 0 min 0,0 UV-I 7,0 C 9,1 C 6,9 km/h (2 Bft)
26.06.2013 04:40 8,5 C 23,1 C 9,9 C 9,0 C 9,0 C 0,5 C 90 % 90 % 0 % 1019,8 hPa 0,0 l/m 4,2 km/h (1 Bft) W-SW 247 0 min 0,0 UV-I 7,0 C 9,0 C 9,2 km/h (2 Bft)
26.06.2013 04:45 8,6 C 23,1 C 9,9 C 9,1 C 9,1 C 0,5 C 90 % 90 % 0 % 1019,8 hPa 0,0 l/m 3,9 km/h (1 Bft) S 180 0 min 0,0 UV-I 7,1 C 9,1 C 4,2 km/h (1 Bft)
26.06.2013 04:50 8,6 C 23,1 C 10,0 C 9,1 C 9,1 C 0,5 C 90 % 90 % 0 % 1019,8 hPa 0,0 l/m 3,2 km/h (1 Bft) W-SW 247 0 min 0,0 UV-I 7,1 C 9,1 C 4,7 km/h (1 Bft)
26.06.2013 04:55 8,5 C 23,0 C 10,0 C 9,2 C 9,2 C 0,7 C 90 % 90 % 0 % 1019,9 hPa 0,0 l/m 3,9 km/h (1 Bft) S-SW 202 0 min 0,0 UV-I 7,0 C 9,2 C 8,2 km/h (2 Bft)
26.06.2013 05:00 8,7 C 23,0 C 9,9 C 8,9 C 8,9 C 0,2 C 90 % 90 % 0 % 1019,9 hPa 0,0 l/m 4,8 km/h (1 Bft) SW 225 0 min 0,0 UV-I 7,2 C 8,6 C 8,5 km/h (2 Bft)
26.06.2013 05:05 8,7 C 23,0 C 9,9 C 8,9 C 8,9 C 0,2 C 90 % 90 % 0 % 1019,9 hPa 0,0 l/m 5,0 km/h (1 Bft) SW 225 0 min 0,0 UV-I 7,2 C 8,5 C 6,8 km/h (2 Bft)
26.06.2013 05:10 8,6 C 23,0 C 9,8 C 8,8 C 8,8 C 0,2 C 90 % 90 % 5 % 1019,9 hPa 0,0 l/m 5,1 km/h (1 Bft) W-SW 247 5 min 0,0 UV-I 7,1 C 8,4 C 6,8 km/h (2 Bft)
26.06.2013 05:15 8,7 C 23,0 C 9,9 C 8,9 C 8,9 C 0,2 C 90 % 90 % 5 % 1020,0 hPa 0,7 l/m 4,8 km/h (1 Bft) S 180 0 min 0,0 UV-I 7,2 C 8,6 C 6,4 km/h (2 Bft)
26.06.2013 05:20 8,7 C 23,0 C 9,9 C 9,2 C 9,2 C 0,5 C 90 % 90 % 13 % 1020,0 hPa 0,0 l/m 4,2 km/h (1 Bft) W-SW 247 5 min 0,0 UV-I 7,2 C 9,2 C 4,3 km/h (1 Bft)
26.06.2013 05:25 8,7 C 23,0 C 10,0 C 9,2 C 9,2 C 0,5 C 90 % 91 % 13 % 1020,0 hPa 0,0 l/m 4,0 km/h (1 Bft) W 270 5 min 0,0 UV-I 7,2 C 9,2 C 6,8 km/h (2 Bft)
26.06.2013 05:30 8,7 C 23,0 C 10,0 C 9,1 C 9,1 C 0,4 C 91 % 91 % 11 % 1020,0 hPa 0,0 l/m 4,3 km/h (1 Bft) S-SW 202 0 min 0,0 UV-I 7,3 C 9,1 C 7,6 km/h (2 Bft)
26.06.2013 05:35 8,6 C 23,0 C 9,9 C 9,1 C 9,1 C 0,5 C 90 % 90 % 13 % 1019,9 hPa 0,0 l/m 4,3 km/h (1 Bft) S-SW 202 0 min 0,0 UV-I 7,1 C 9,1 C 5,5 km/h (1 Bft)
26.06.2013 05:40 8,7 C 23,0 C 9,9 C 9,1 C 9,1 C 0,4 C 90 % 90 % 11 % 1019,9 hPa 0,0 l/m 4,3 km/h (1 Bft) S 180 0 min 0,0 UV-I 7,2 C 9,1 C 9,0 km/h (2 Bft)
26.06.2013 05:45 8,5 C 23,0 C 9,9 C 9,0 C 9,0 C 0,5 C 90 % 90 % 13 % 1019,9 hPa 0,7 l/m 4,5 km/h (1 Bft) SW 225 0 min 0,0 UV-I 7,0 C 9,0 C 15,0 km/h (3 Bft)
26.06.2013 05:50 8,5 C 23,0 C 9,9 C 8,9 C 8,9 C 0,4 C 90 % 90 % 11 % 1019,9 hPa 0,0 l/m 4,7 km/h (1 Bft) S 180 0 min 0,0 UV-I 7,0 C 8,6 C 13,7 km/h (3 Bft)
26.06.2013 05:55 8,5 C 23,0 C 9,9 C 8,8 C 8,8 C 0,3 C 90 % 90 % 8 % 1020,1 hPa 0,0 l/m 4,7 km/h (1 Bft) W-SW 247 0 min 0,0 UV-I 7,0 C 8,5 C 7,4 km/h (2 Bft)
26.06.2013 06:00 8,4 C 23,0 C 9,8 C 8,7 C 8,7 C 0,3 C 90 % 90 % 8 % 1020,1 hPa 0,0 l/m 5,1 km/h (1 Bft) W-SW 247 0 min 0,0 UV-I 6,9 C 8,2 C 8,5 km/h (2 Bft)
26.06.2013 06:05 8,4 C 23,0 C 9,8 C 8,9 C 8,9 C 0,5 C 90 % 90 % 13 % 1020,1 hPa 0,0 l/m 4,5 km/h (1 Bft) SW 225 0 min 0,0 UV-I 6,9 C 8,9 C 9,0 km/h (2 Bft)
26.06.2013 06:10 8,4 C 23,0 C 9,8 C 8,9 C 8,9 C 0,5 C 90 % 90 % 13 % 1020,1 hPa 0,0 l/m 4,5 km/h (1 Bft) S 180 0 min 0,0 UV-I 6,9 C 8,9 C 8,5 km/h (2 Bft)
26.06.2013 06:15 8,4 C 22,9 C 9,7 C 8,7 C 8,7 C 0,3 C 90 % 90 % 8 % 1020,1 hPa 0,7 l/m 5,1 km/h (1 Bft) O 90 0 min 0,0 UV-I 6,9 C 8,2 C 5,5 km/h (1 Bft)
26.06.2013 06:20 8,4 C 22,9 C 9,7 C 8,7 C 8,7 C 0,3 C 90 % 90 % 8 % 1020,1 hPa 0,0 l/m 5,1 km/h (1 Bft) SO 135 0 min 0,0 UV-I 6,9 C 8,2 C 8,5 km/h (2 Bft)
26.06.2013 06:25 8,5 C 22,9 C 9,8 C 8,9 C 8,9 C 0,4 C 91 % 90 % 11 % 1020,1 hPa 0,0 l/m 4,5 km/h (1 Bft) SW 225 0 min 0,0 UV-I 7,1 C 8,9 C 3,2 km/h (1 Bft)
26.06.2013 06:30 8,4 C 22,9 C 9,7 C 9,1 C 9,1 C 0,7 C 91 % 90 % 18 % 1020,1 hPa 0,0 l/m 3,9 km/h (1 Bft) W 270 0 min 0,0 UV-I 7,0 C 9,1 C 4,8 km/h (1 Bft)
26.06.2013 06:35 8,4 C 22,9 C 9,8 C 9,1 C 9,1 C 0,7 C 91 % 90 % 18 % 1019,9 hPa 0,0 l/m 3,7 km/h (1 Bft) W-NW 292 0 min 0,0 UV-I 7,0 C 9,1 C 3,9 km/h (1 Bft)
26.06.2013 06:41 8,4 C 22,9 C 9,9 C 9,1 C 9,1 C 0,7 C 91 % 90 % 18 % 1019,9 hPa 0,0 l/m 4,0 km/h (1 Bft) N 0 0 min 0,0 UV-I 7,0 C 9,1 C 14,0 km/h (3 Bft)
26.06.2013 07:00 8,4 C 22,8 C 9,9 C 9,0 C 9,0 C 0,6 C 91 % 90 % 16 % 1020,2 hPa 0,0 l/m 4,5 km/h (1 Bft) S 180 0 min 0,0 UV-I 7,0 C 9,0 C 4,7 km/h (1 Bft)
26.06.2013 07:05 8,4 C 22,8 C 9,8 C 9,0 C 9,0 C 0,6 C 91 % 90 % 16 % 1020,2 hPa 0,7 l/m 4,5 km/h (1 Bft) S 180 0 min 0,0 UV-I 7,0 C 9,0 C 6,8 km/h (2 Bft)
26.06.2013 07:10 8,5 C 22,8 C 9,9 C 9,2 C 9,2 C 0,7 C 91 % 90 % 18 % 1020,2 hPa 0,0 l/m 4,2 km/h (1 Bft) SO 135 0 min 0,0 UV-I 7,1 C 9,2 C 4,0 km/h (1 Bft)
26.06.2013 07:15 8,5 C 22,8 C 9,8 C 9,2 C 9,2 C 0,7 C 91 % 90 % 18 % 1020,3 hPa 0,0 l/m 4,2 km/h (1 Bft) SW 225 0 min 0,0 UV-I 7,1 C 9,2 C 10,6 km/h (2 Bft)
26.06.2013 07:20 8,5 C 22,8 C 9,9 C 9,3 C 9,3 C 0,8 C 91 % 90 % 21 % 1020,3 hPa 0,0 l/m 4,0 km/h (1 Bft) W-SW 247 0 min 0,0 UV-I 7,1 C 9,3 C 3,4 km/h (1 Bft)
26.06.2013 07:25 8,6 C 22,8 C 9,9 C 9,3 C 9,3 C 0,7 C 91 % 90 % 18 % 1020,3 hPa 0,0 l/m 4,0 km/h (1 Bft) S-SO 157 0 min 0,0 UV-I 7,2 C 9,3 C 6,0 km/h (2 Bft)
26.06.2013 07:30 8,7 C 22,8 C 9,9 C 9,3 C 9,3 C 0,6 C 91 % 90 % 16 % 1020,3 hPa 0,0 l/m 3,9 km/h (1 Bft) S-SO 157 0 min 0,0 UV-I 7,3 C 9,3 C 4,5 km/h (1 Bft)
26.06.2013 07:35 8,7 C 22,7 C 10,0 C 9,3 C 9,3 C 0,6 C 91 % 91 % 16 % 1020,6 hPa 0,0 l/m 4,2 km/h (1 Bft) W-SW 247 0 min 0,0 UV-I 7,3 C 9,3 C 5,5 km/h (1 Bft)
26.06.2013 07:40 8,7 C 22,7 C 10,0 C 9,2 C 9,2 C 0,5 C 91 % 91 % 13 % 1020,6 hPa 0,7 l/m 4,5 km/h (1 Bft) W-SW 247 0 min 0,0 UV-I 7,3 C 9,2 C 6,0 km/h (2 Bft)
26.06.2013 07:45 8,7 C 22,7 C 10,0 C 9,3 C 9,3 C 0,6 C 91 % 91 % 16 % 1020,6 hPa 0,0 l/m 4,2 km/h (1 Bft) S-SO 157 0 min 0,0 UV-I 7,3 C 9,3 C 7,7 km/h (2 Bft)
26.06.2013 07:50 8,7 C 22,7 C 10,1 C 9,5 C 9,5 C 0,8 C 91 % 91 % 21 % 1020,6 hPa 0,0 l/m 3,7 km/h (1 Bft) N-NW 337 0 min 0,0 UV-I 7,3 C 9,5 C 3,9 km/h (1 Bft)
26.06.2013 07:55 8,6 C 22,7 C 10,0 C 9,5 C 9,5 C 0,9 C 91 % 91 % 24 % 1020,9 hPa 0,0 l/m 3,7 km/h (1 Bft) W 270 0 min 0,0 UV-I 7,2 C 9,5 C 3,2 km/h (1 Bft)
26.06.2013 08:00 8,7 C 22,7 C 10,1 C 9,7 C 9,7 C 1,0 C 91 % 91 % 26 % 1020,9 hPa 0,0 l/m 3,9 km/h (1 Bft) SW 225 0 min 0,0 UV-I 7,3 C 9,7 C 7,4 km/h (2 Bft)
26.06.2013 08:05 8,8 C 22,7 C 10,1 C 9,7 C 9,7 C 0,9 C 91 % 91 % 24 % 1020,9 hPa 0,0 l/m 4,2 km/h (1 Bft) O-SO 112 0 min 0,0 UV-I 7,4 C 9,7 C 4,8 km/h (1 Bft)
26.06.2013 08:10 8,8 C 22,7 C 10,2 C 9,9 C 9,9 C 1,1 C 91 % 91 % 29 % 1020,9 hPa 0,0 l/m 3,4 km/h (1 Bft) SW 225 0 min 0,0 UV-I 7,4 C 9,9 C 3,7 km/h (1 Bft)
26.06.2013 08:15 8,9 C 22,7 C 10,4 C 10,1 C 10,1 C 1,2 C 91 % 91 % 32 % 1020,8 hPa 0,7 l/m 3,5 km/h (1 Bft) W-SW 247 0 min 0,0 UV-I 7,5 C 10,1 C 6,0 km/h (2 Bft)
26.06.2013 08:20 8,9 C 22,7 C 10,4 C 10,1 C 10,1 C 1,2 C 91 % 90 % 32 % 1020,8 hPa 0,0 l/m 4,2 km/h (1 Bft) S-SO 157 0 min 0,0 UV-I 7,5 C 10,1 C 4,0 km/h (1 Bft)
26.06.2013 08:25 9,0 C 22,6 C 10,3 C 10,0 C 10,0 C 1,0 C 91 % 90 % 26 % 1020,8 hPa 0,0 l/m 4,5 km/h (1 Bft) W-NW 292 0 min 0,0 UV-I 7,6 C 10,0 C 2,6 km/h (1 Bft)
26.06.2013 08:30 9,0 C 22,6 C 10,3 C 9,7 C 9,7 C 0,7 C 91 % 90 % 18 % 1020,8 hPa 0,0 l/m 4,7 km/h (1 Bft) W-SW 247 0 min 0,0 UV-I 7,6 C 9,5 C 5,3 km/h (1 Bft)
26.06.2013 08:35 9,0 C 22,6 C 10,3 C 9,8 C 9,8 C 0,8 C 91 % 90 % 21 % 1021,1 hPa 0,0 l/m 4,5 km/h (1 Bft) SW 225 0 min 0,0 UV-I 7,6 C 9,8 C 9,8 km/h (2 Bft)
26.06.2013 08:40 8,9 C 22,5 C 10,3 C 9,4 C 9,4 C 0,5 C 90 % 90 % 13 % 1021,1 hPa 0,0 l/m 5,1 km/h (1 Bft) W-SW 247 0 min 0,0 UV-I 7,4 C 9,0 C 5,8 km/h (2 Bft)
26.06.2013 08:45 8,9 C 22,6 C 10,2 C 9,2 C 9,2 C 0,3 C 90 % 90 % 8 % 1021,1 hPa 0,7 l/m 5,8 km/h (2 Bft) S 180 0 min 0,0 UV-I 7,4 C 8,6 C 16,3 km/h (3 Bft)
26.06.2013 08:50 8,9 C 22,5 C 10,3 C 9,5 C 9,5 C 0,6 C 90 % 90 % 16 % 1021,1 hPa 0,0 l/m 5,0 km/h (1 Bft) W-SW 247 0 min 0,0 UV-I 7,4 C 9,2 C 6,9 km/h (2 Bft)
26.06.2013 08:55 9,0 C 22,6 C 10,4 C 9,8 C 9,8 C 0,8 C 90 % 90 % 21 % 1021,4 hPa 0,0 l/m 4,3 km/h (1 Bft) W-SW 247 0 min 0,0 UV-I 7,4 C 9,8 C 4,7 km/h (1 Bft)
26.06.2013 09:00 9,0 C 22,5 C 10,4 C 9,7 C 9,7 C 0,7 C 90 % 90 % 18 % 1021,4 hPa 0,0 l/m 4,8 km/h (1 Bft) W-SW 247 0 min 0,0 UV-I 7,4 C 9,5 C 14,2 km/h (3 Bft)
26.06.2013 09:05 9,0 C 22,5 C 10,4 C 9,5 C 9,5 C 0,5 C 90 % 90 % 13 % 1021,4 hPa 0,0 l/m 5,5 km/h (1 Bft) S 180 0 min 0,0 UV-I 7,4 C 9,0 C 20,4 km/h (4 Bft)
26.06.2013 09:10 9,1 C 22,5 C 10,5 C 9,2 C 9,2 C 0,1 C 90 % 90 % 3 % 1021,4 hPa 0,0 l/m 6,4 km/h (2 Bft) W 270 0 min 0,0 UV-I 7,5 C 8,4 C 7,9 km/h (2 Bft)
26.06.2013 09:15 9,1 C 22,5 C 10,4 C 9,4 C 9,4 C 0,3 C 90 % 90 % 8 % 1021,4 hPa 0,0 l/m 5,8 km/h (2 Bft) SW 225 0 min 0,0 UV-I 7,5 C 8,8 C 5,3 km/h (1 Bft)
26.06.2013 09:20 9,1 C 22,4 C 10,5 C 9,9 C 9,9 C 0,8 C 90 % 90 % 21 % 1021,4 hPa 0,0 l/m 4,8 km/h (1 Bft) SW 225 0 min 0,0 UV-I 7,5 C 9,7 C 5,8 km/h (2 Bft)
26.06.2013 09:25 9,1 C 22,4 C 10,4 C 10,1 C 10,1 C 1,0 C 90 % 90 % 26 % 1021,4 hPa 0,0 l/m 4,3 km/h (1 Bft) S 180 0 min 0,0 UV-I 7,5 C 10,1 C 4,3 km/h (1 Bft)
26.06.2013 09:30 9,0 C 22,4 C 10,5 C 9,9 C 9,9 C 0,9 C 90 % 90 % 24 % 1021,4 hPa 0,0 l/m 4,5 km/h (1 Bft) S 180 0 min 0,0 UV-I 7,4 C 9,9 C 6,4 km/h (2 Bft)
26.06.2013 09:35 9,1 C 22,4 C 10,4 C 9,8 C 9,8 C 0,7 C 90 % 90 % 18 % 1021,8 hPa 0,0 l/m 4,3 km/h (1 Bft) W-SW 247 0 min 0,0 UV-I 7,5 C 9,8 C 9,7 km/h (2 Bft)
26.06.2013 09:40 9,1 C 22,5 C 10,5 C 9,9 C 9,9 C 0,8 C 90 % 90 % 21 % 1021,8 hPa 0,0 l/m 3,7 km/h (1 Bft) W 270 0 min 0,0 UV-I 7,5 C 9,9 C 2,1 km/h (1 Bft)
26.06.2013 09:45 9,0 C 22,5 C 10,5 C 10,0 C 10,0 C 1,0 C 90 % 90 % 26 % 1021,8 hPa 0,0 l/m 3,9 km/h (1 Bft) W-SW 247 0 min 0,0 UV-I 7,4 C 10,0 C 7,9 km/h (2 Bft)
26.06.2013 09:50 9,1 C 22,4 C 10,6 C 10,3 C 10,3 C 1,2 C 90 % 90 % 32 % 1021,8 hPa 0,0 l/m 3,4 km/h (1 Bft) SW 225 0 min 0,0 UV-I 7,5 C 10,3 C 4,7 km/h (1 Bft)
26.06.2013 09:55 9,1 C 22,4 C 10,7 C 10,5 C 10,5 C 1,4 C 90 % 90 % 37 % 1021,6 hPa 0,0 l/m 4,3 km/h (1 Bft) SW 225 0 min 0,0 UV-I 7,5 C 10,5 C 6,9 km/h (2 Bft)
26.06.2013 10:00 9,2 C 22,4 C 10,8 C 10,4 C 10,4 C 1,2 C 90 % 90 % 32 % 1021,6 hPa 0,0 l/m 4,7 km/h (1 Bft) W-NW 292 0 min 0,0 UV-I 7,6 C 10,4 C 4,7 km/h (1 Bft)
26.06.2013 10:05 9,3 C 22,4 C 10,7 C 10,3 C 10,3 C 1,0 C 90 % 90 % 26 % 1021,6 hPa 0,0 l/m 4,8 km/h (1 Bft) W 270 0 min 0,0 UV-I 7,7 C 10,3 C 4,7 km/h (1 Bft)
26.06.2013 10:10 9,2 C 22,4 C 10,7 C 9,9 C 9,9 C 0,7 C 89 % 90 % 18 % 1021,6 hPa 0,0 l/m 5,6 km/h (1 Bft) W 270 0 min 0,0 UV-I 7,5 C 9,5 C 4,8 km/h (1 Bft)
26.06.2013 10:15 9,2 C 22,3 C 10,7 C 9,9 C 9,9 C 0,7 C 89 % 90 % 18 % 1021,6 hPa 0,0 l/m 5,6 km/h (1 Bft) W-SW 247 0 min 0,0 UV-I 7,5 C 9,5 C 6,1 km/h (2 Bft)
26.06.2013 10:20 9,2 C 22,3 C 10,8 C 10,5 C 10,5 C 1,3 C 89 % 90 % 34 % 1021,6 hPa 0,0 l/m 4,8 km/h (1 Bft) W-SW 247 0 min 0,0 UV-I 7,5 C 10,5 C 8,9 km/h (2 Bft)
26.06.2013 10:25 9,3 C 22,4 C 10,9 C 10,8 C 10,8 C 1,5 C 89 % 90 % 39 % 1021,6 hPa 0,0 l/m 4,7 km/h (1 Bft) W-SW 247 0 min 0,0 UV-I 7,6 C 10,8 C 6,3 km/h (2 Bft)
26.06.2013 10:30 9,2 C 22,3 C 11,1 C 11,1 C 11,1 C 1,9 C 89 % 90 % 50 % 1021,6 hPa 0,0 l/m 5,0 km/h (1 Bft) W 270 0 min 0,0 UV-I 7,5 C 11,1 C 5,6 km/h (1 Bft)
26.06.2013 10:35 9,2 C 22,3 C 11,1 C 11,1 C 11,1 C 1,9 C 89 % 90 % 50 % 1021,6 hPa 0,0 l/m 5,1 km/h (1 Bft) SW 225 0 min 0,0 UV-I 7,5 C 11,1 C 5,0 km/h (1 Bft)
26.06.2013 10:40 9,3 C 22,3 C 10,9 C 11,0 C 11,0 C 1,7 C 89 % 90 % 45 % 1021,6 hPa 0,0 l/m 5,0 km/h (1 Bft) S 180 0 min 0,0 UV-I 7,6 C 11,0 C 9,0 km/h (2 Bft)
26.06.2013 10:45 9,2 C 22,2 C 10,8 C 10,6 C 10,6 C 1,4 C 88 % 90 % 37 % 1021,6 hPa 0,0 l/m 5,5 km/h (1 Bft) S-SW 202 0 min 0,0 UV-I 7,3 C 10,6 C 7,7 km/h (2 Bft)
26.06.2013 10:50 9,2 C 22,2 C 10,7 C 9,7 C 9,7 C 0,5 C 87 % 90 % 13 % 1021,6 hPa 0,0 l/m 7,4 km/h (2 Bft) W-SW 247 0 min 0,0 UV-I 7,2 C 8,8 C 10,6 km/h (2 Bft)
26.06.2013 10:55 9,1 C 22,2 C 10,7 C 9,9 C 9,5 C 0,8 C 87 % 90 % 21 % 1021,8 hPa 0,0 l/m 7,7 km/h (2 Bft) S-SW 202 0 min 0,0 UV-I 7,1 C 8,5 C 13,0 km/h (3 Bft)
26.06.2013 11:00 9,1 C 22,3 C 10,5 C 9,6 C 9,1 C 0,5 C 87 % 90 % 13 % 1021,8 hPa 0,0 l/m 7,9 km/h (2 Bft) SW 225 0 min 0,0 UV-I 7,1 C 8,0 C 9,0 km/h (2 Bft)
26.06.2013 11:05 8,9 C 22,2 C 10,5 C 9,5 C 9,3 C 0,6 C 87 % 90 % 16 % 1021,8 hPa 0,0 l/m 7,9 km/h (2 Bft) SW 225 0 min 0,0 UV-I 6,9 C 8,2 C 21,9 km/h (4 Bft)
26.06.2013 11:10 8,9 C 22,2 C 10,7 C 10,1 C 10,1 C 1,2 C 87 % 90 % 32 % 1021,8 hPa 0,0 l/m 6,0 km/h (2 Bft) SW 225 0 min 0,0 UV-I 6,9 C 10,1 C 6,3 km/h (2 Bft)
26.06.2013 11:15 8,9 C 22,2 C 10,9 C 10,6 C 10,6 C 1,7 C 88 % 90 % 45 % 1022,1 hPa 0,0 l/m 5,3 km/h (1 Bft) S 180 0 min 0,0 UV-I 7,0 C 10,6 C 4,0 km/h (1 Bft)
26.06.2013 11:20 9,0 C 22,2 C 10,9 C 11,3 C 11,3 C 2,3 C 88 % 90 % 61 % 1022,1 hPa 0,0 l/m 4,5 km/h (1 Bft) W-SW 247 0 min 0,0 UV-I 7,1 C 11,3 C 4,3 km/h (1 Bft)
26.06.2013 11:25 9,1 C 22,2 C 11,1 C 11,4 C 11,4 C 2,3 C 87 % 90 % 61 % 1022,1 hPa 0,0 l/m 5,0 km/h (1 Bft) S-SO 157 0 min 0,0 UV-I 7,1 C 11,4 C 8,4 km/h (2 Bft)
26.06.2013 11:30 9,2 C 22,1 C 11,1 C 11,5 C 11,5 C 2,3 C 87 % 90 % 61 % 1022,1 hPa 0,0 l/m 5,8 km/h (2 Bft) SW 225 0 min 0,0 UV-I 7,2 C 11,5 C 4,3 km/h (1 Bft)
26.06.2013 11:35 9,5 C 22,1 C 11,5 C 11,9 C 11,9 C 2,4 C 88 % 90 % 63 % 1021,9 hPa 0,0 l/m 5,8 km/h (2 Bft) W-SW 247 0 min 0,0 UV-I 7,6 C 11,9 C 5,8 km/h (2 Bft)
26.06.2013 11:40 9,8 C 22,1 C 11,9 C 13,2 C 13,2 C 3,4 C 87 % 90 % 89 % 1021,9 hPa 0,0 l/m 6,3 km/h (2 Bft) W-SW 247 5 min 0,0 UV-I 7,7 C 13,2 C 8,7 km/h (2 Bft)
26.06.2013 11:45 10,1 C 22,1 C 12,1 C 13,8 C 13,8 C 3,7 C 87 % 90 % 97 % 1021,9 hPa 0,0 l/m 6,6 km/h (2 Bft) O-NO 67 5 min 0,0 UV-I 8,0 C 13,8 C 12,7 km/h (3 Bft)
26.06.2013 11:50 10,5 C 22,0 C 12,3 C 14,2 C 14,2 C 3,7 C 85 % 90 % 97 % 1021,9 hPa 0,0 l/m 6,8 km/h (2 Bft) SW 225 5 min 0,0 UV-I 8,1 C 14,2 C 9,3 km/h (2 Bft)
26.06.2013 11:55 10,6 C 22,1 C 12,1 C 13,7 C 13,7 C 3,1 C 84 % 90 % 82 % 1021,9 hPa 0,0 l/m 7,1 km/h (2 Bft) SW 225 0 min 0,0 UV-I 8,0 C 13,7 C 6,0 km/h (2 Bft)
26.06.2013 12:00 10,7 C 22,1 C 11,8 C 12,7 C 12,7 C 2,0 C 84 % 90 % 53 % 1021,9 hPa 0,0 l/m 6,4 km/h (2 Bft) W-SW 247 0 min 0,0 UV-I 8,1 C 12,7 C 6,8 km/h (2 Bft)
26.06.2013 12:05 10,7 C 22,1 C 11,8 C 12,6 C 12,6 C 1,9 C 84 % 90 % 50 % 1021,9 hPa 0,0 l/m 6,1 km/h (2 Bft) SW 225 0 min 0,0 UV-I 8,1 C 12,6 C 8,9 km/h (2 Bft)
26.06.2013 12:10 10,7 C 22,0 C 11,5 C 11,8 C 11,1 C 1,1 C 83 % 89 % 29 % 1021,9 hPa 0,0 l/m 7,7 km/h (2 Bft) W 270 0 min 0,0 UV-I 7,9 C 11,1 C 10,6 km/h (2 Bft)
26.06.2013 12:15 10,6 C 22,0 C 11,4 C 10,8 C 10,8 C 0,2 C 82 % 89 % 5 % 1021,9 hPa 0,0 l/m 7,6 km/h (2 Bft) SW 225 0 min 0,0 UV-I 7,7 C 10,8 C 6,8 km/h (2 Bft)
26.06.2013 12:20 10,5 C 22,0 C 11,4 C 11,1 C 11,1 C 0,6 C 83 % 89 % 16 % 1021,9 hPa 0,0 l/m 6,4 km/h (2 Bft) W 270 0 min 0,0 UV-I 7,7 C 11,1 C 5,3 km/h (1 Bft)
26.06.2013 12:25 10,4 C 22,0 C 11,6 C 11,4 C 11,4 C 1,0 C 83 % 89 % 26 % 1021,9 hPa 0,0 l/m 6,1 km/h (2 Bft) W-SW 247 0 min 0,0 UV-I 7,6 C 11,4 C 6,1 km/h (2 Bft)
26.06.2013 12:30 10,6 C 22,0 C 12,0 C 12,7 C 12,7 C 2,1 C 83 % 89 % 55 % 1021,9 hPa 0,0 l/m 4,5 km/h (1 Bft) SW 225 0 min 0,0 UV-I 7,8 C 12,7 C 3,2 km/h (1 Bft)
26.06.2013 12:35 10,8 C 22,0 C 12,3 C 13,6 C 13,6 C 2,8 C 83 % 89 % 74 % 1022,1 hPa 0,0 l/m 4,5 km/h (1 Bft) W 270 0 min 0,0 UV-I 8,0 C 13,6 C 4,5 km/h (1 Bft)
26.06.2013 12:41 11,2 C 22,0 C 12,7 C 14,9 C 14,9 C 3,7 C 83 % 89 % 97 % 1022,1 hPa 0,0 l/m 4,5 km/h (1 Bft) N 0 6 min 0,0 UV-I 8,4 C 14,9 C 7,4 km/h (2 Bft)
26.06.2013 13:00 12,0 C 22,0 C 13,1 C 14,9 C 14,9 C 2,9 C 77 % 88 % 76 % 1022,1 hPa 0,0 l/m 7,7 km/h (2 Bft) W-SW 247 0 min 0,0 UV-I 8,1 C 14,9 C 23,0 km/h (4 Bft)
26.06.2013 13:05 12,1 C 22,0 C 13,1 C 14,9 C 14,9 C 2,8 C 77 % 88 % 74 % 1022,1 hPa 0,0 l/m 7,4 km/h (2 Bft) W-SW 247 0 min 0,0 UV-I 8,2 C 14,9 C 7,9 km/h (2 Bft)
26.06.2013 13:10 12,3 C 21,9 C 13,2 C 15,0 C 15,0 C 2,7 C 76 % 87 % 71 % 1022,1 hPa 0,0 l/m 8,0 km/h (2 Bft) SO 135 0 min 0,0 UV-I 8,2 C 15,0 C 8,7 km/h (2 Bft)
26.06.2013 13:15 12,4 C 21,9 C 13,2 C 15,6 C 15,6 C 3,2 C 77 % 86 % 84 % 1022,0 hPa 0,0 l/m 7,4 km/h (2 Bft) S 180 0 min 0,0 UV-I 8,5 C 15,6 C 14,5 km/h (3 Bft)
26.06.2013 13:20 12,7 C 21,9 C 13,2 C 15,8 C 15,8 C 3,1 C 76 % 85 % 82 % 1022,0 hPa 0,0 l/m 7,2 km/h (2 Bft) W 270 0 min 0,0 UV-I 8,6 C 15,8 C 7,7 km/h (2 Bft)
26.06.2013 13:25 12,7 C 21,8 C 13,2 C 15,6 C 15,6 C 2,9 C 76 % 85 % 76 % 1022,0 hPa 0,0 l/m 7,4 km/h (2 Bft) SW 225 0 min 0,0 UV-I 8,6 C 15,6 C 8,2 km/h (2 Bft)
26.06.2013 13:30 12,4 C 21,8 C 12,9 C 14,8 C 14,8 C 2,4 C 75 % 85 % 63 % 1022,0 hPa 0,0 l/m 7,4 km/h (2 Bft) S-SW 202 0 min 0,0 UV-I 8,1 C 14,8 C 7,6 km/h (2 Bft)
26.06.2013 13:35 12,4 C 21,8 C 13,0 C 14,8 C 14,7 C 2,4 C 74 % 84 % 63 % 1021,9 hPa 0,0 l/m 8,2 km/h (2 Bft) N-NO 22 0 min 0,0 UV-I 7,9 C 14,7 C 5,5 km/h (1 Bft)
26.06.2013 13:40 12,6 C 21,8 C 13,5 C 15,9 C 15,9 C 3,3 C 74 % 84 % 87 % 1021,9 hPa 0,0 l/m 7,4 km/h (2 Bft) S 180 5 min 0,0 UV-I 8,1 C 15,9 C 7,9 km/h (2 Bft)
26.06.2013 13:45 12,9 C 21,8 C 13,7 C 16,5 C 16,5 C 3,6 C 75 % 84 % 95 % 1021,9 hPa 0,0 l/m 6,6 km/h (2 Bft) S 180 5 min 0,0 UV-I 8,6 C 16,5 C 8,7 km/h (2 Bft)
26.06.2013 13:50 13,2 C 21,8 C 13,9 C 17,0 C 17,0 C 3,8 C 72 % 83 % 100 % 1021,9 hPa 0,0 l/m 7,1 km/h (2 Bft) W 270 5 min 0,0 UV-I 8,3 C 17,0 C 7,2 km/h (2 Bft)
26.06.2013 13:55 13,2 C 21,8 C 13,8 C 17,0 C 17,0 C 3,8 C 73 % 83 % 100 % 1022,0 hPa 0,0 l/m 7,2 km/h (2 Bft) W-SW 247 5 min 0,0 UV-I 8,5 C 17,0 C 11,3 km/h (2 Bft)
26.06.2013 14:00 13,2 C 21,8 C 13,7 C 16,6 C 16,6 C 3,4 C 70 % 83 % 89 % 1022,0 hPa 0,0 l/m 6,9 km/h (2 Bft) SW 225 5 min 0,0 UV-I 7,9 C 16,6 C 13,0 km/h (3 Bft)
26.06.2013 14:05 13,1 C 21,8 C 13,5 C 15,8 C 15,8 C 2,7 C 70 % 83 % 71 % 1022,0 hPa 0,0 l/m 7,2 km/h (2 Bft) SW 225 0 min 0,0 UV-I 7,8 C 15,8 C 12,6 km/h (3 Bft)
26.06.2013 14:10 12,8 C 21,8 C 13,1 C 14,7 C 14,7 C 1,9 C 71 % 83 % 50 % 1022,0 hPa 0,0 l/m 7,1 km/h (2 Bft) W 270 0 min 0,0 UV-I 7,7 C 14,7 C 8,4 km/h (2 Bft)
26.06.2013 14:15 12,8 C 21,8 C 13,0 C 14,3 C 14,3 C 1,5 C 72 % 83 % 39 % 1022,1 hPa 0,0 l/m 7,1 km/h (2 Bft) S-SW 202 0 min 0,0 UV-I 7,9 C 14,3 C 9,0 km/h (2 Bft)
26.06.2013 14:20 12,7 C 21,8 C 13,1 C 14,4 C 14,4 C 1,7 C 72 % 83 % 45 % 1022,1 hPa 0,0 l/m 6,1 km/h (2 Bft) S-SW 202 0 min 0,0 UV-I 7,8 C 14,4 C 6,0 km/h (2 Bft)
26.06.2013 14:25 12,8 C 21,8 C 13,2 C 14,7 C 14,7 C 1,9 C 73 % 83 % 50 % 1022,1 hPa 0,0 l/m 5,0 km/h (1 Bft) SW 225 0 min 0,0 UV-I 8,1 C 14,7 C 13,4 km/h (3 Bft)
26.06.2013 14:30 12,9 C 21,8 C 13,3 C 14,9 C 14,9 C 2,0 C 73 % 83 % 53 % 1022,1 hPa 0,0 l/m 5,3 km/h (1 Bft) W-SW 247 0 min 0,0 UV-I 8,2 C 14,9 C 6,3 km/h (2 Bft)
26.06.2013 14:35 12,9 C 21,8 C 13,1 C 14,6 C 14,6 C 1,7 C 73 % 83 % 45 % 1022,3 hPa 0,0 l/m 6,0 km/h (2 Bft) NW 315 0 min 0,0 UV-I 8,2 C 14,6 C 5,8 km/h (2 Bft)
26.06.2013 14:40 12,9 C 21,8 C 12,9 C 14,2 C 14,2 C 1,3 C 72 % 83 % 34 % 1022,3 hPa 0,0 l/m 5,8 km/h (2 Bft) W 270 0 min 0,0 UV-I 8,0 C 14,2 C 12,1 km/h (2 Bft)
26.06.2013 14:45 12,7 C 21,8 C 13,1 C 14,1 C 14,1 C 1,4 C 72 % 82 % 37 % 1022,3 hPa 0,0 l/m 6,1 km/h (2 Bft) S 180 0 min 0,0 UV-I 7,8 C 14,1 C 8,0 km/h (2 Bft)
26.06.2013 14:50 12,9 C 21,8 C 13,2 C 14,7 C 14,7 C 1,8 C 73 % 82 % 47 % 1022,3 hPa 0,0 l/m 6,1 km/h (2 Bft) SW 225 0 min 0,0 UV-I 8,2 C 14,7 C 6,8 km/h (2 Bft)
26.06.2013 14:55 13,0 C 21,8 C 13,5 C 15,3 C 15,3 C 2,3 C 72 % 82 % 61 % 1022,1 hPa 0,0 l/m 5,6 km/h (1 Bft) W 270 0 min 0,0 UV-I 8,1 C 15,3 C 5,3 km/h (1 Bft)
26.06.2013 15:00 13,2 C 21,8 C 13,5 C 16,0 C 16,0 C 2,8 C 71 % 82 % 74 % 1022,1 hPa 0,0 l/m 5,5 km/h (1 Bft) W-SW 247 0 min 0,0 UV-I 8,1 C 16,0 C 12,2 km/h (2 Bft)
26.06.2013 15:05 13,2 C 21,8 C 13,5 C 15,7 C 15,7 C 2,5 C 70 % 82 % 66 % 1022,1 hPa 0,0 l/m 5,8 km/h (2 Bft) W 270 0 min 0,0 UV-I 7,9 C 15,7 C 9,3 km/h (2 Bft)
26.06.2013 15:10 13,3 C 21,8 C 13,4 C 15,5 C 15,5 C 2,2 C 71 % 82 % 58 % 1022,1 hPa 0,0 l/m 6,3 km/h (2 Bft) W-SW 247 0 min 0,0 UV-I 8,2 C 15,5 C 5,5 km/h (1 Bft)
26.06.2013 15:15 13,2 C 21,8 C 13,4 C 15,4 C 15,4 C 2,2 C 70 % 81 % 58 % 1022,3 hPa 0,0 l/m 6,0 km/h (2 Bft) W-SW 247 0 min 0,0 UV-I 7,9 C 15,4 C 8,7 km/h (2 Bft)
26.06.2013 15:20 13,3 C 21,8 C 13,5 C 15,6 C 15,6 C 2,3 C 70 % 81 % 61 % 1022,3 hPa 0,0 l/m 6,3 km/h (2 Bft) W-SW 247 0 min 0,0 UV-I 7,9 C 15,6 C 9,7 km/h (2 Bft)
26.06.2013 15:25 13,3 C 21,8 C 13,5 C 15,5 C 15,5 C 2,2 C 70 % 80 % 58 % 1022,3 hPa 0,0 l/m 6,8 km/h (2 Bft) W-SW 247 0 min 0,0 UV-I 7,9 C 15,5 C 6,3 km/h (2 Bft)
26.06.2013 15:30 13,3 C 21,8 C 13,4 C 15,4 C 15,4 C 2,1 C 69 % 80 % 55 % 1022,3 hPa 0,0 l/m 7,2 km/h (2 Bft) SW 225 0 min 0,0 UV-I 7,7 C 15,4 C 10,5 km/h (2 Bft)
26.06.2013 15:35 13,3 C 21,8 C 13,3 C 15,1 C 15,1 C 1,8 C 69 % 80 % 47 % 1022,1 hPa 0,0 l/m 6,4 km/h (2 Bft) W-SW 247 0 min 0,0 UV-I 7,7 C 15,1 C 4,8 km/h (1 Bft)
26.06.2013 15:40 13,3 C 21,8 C 13,3 C 15,0 C 15,0 C 1,7 C 69 % 80 % 45 % 1022,1 hPa 0,0 l/m 6,8 km/h (2 Bft) SW 225 0 min 0,0 UV-I 7,7 C 15,0 C 11,1 km/h (2 Bft)
26.06.2013 15:45 13,3 C 21,8 C 13,4 C 15,1 C 15,1 C 1,8 C 69 % 80 % 47 % 1022,1 hPa 0,0 l/m 7,1 km/h (2 Bft) W-SW 247 0 min 0,0 UV-I 7,7 C 15,1 C 8,0 km/h (2 Bft)
26.06.2013 15:50 13,5 C 21,8 C 13,2 C 15,1 C 15,1 C 1,6 C 68 % 78 % 42 % 1022,1 hPa 0,0 l/m 8,5 km/h (2 Bft) W 270 0 min 0,0 UV-I 7,7 C 15,1 C 9,2 km/h (2 Bft)
26.06.2013 15:55 13,5 C 21,8 C 13,3 C 15,1 C 15,1 C 1,6 C 69 % 79 % 42 % 1021,9 hPa 0,0 l/m 8,4 km/h (2 Bft) W-SW 247 0 min 0,0 UV-I 7,9 C 15,1 C 11,4 km/h (2 Bft)
26.06.2013 16:00 13,2 C 21,8 C 13,0 C 14,7 C 14,4 C 1,5 C 67 % 79 % 39 % 1021,9 hPa 0,0 l/m 8,9 km/h (2 Bft) SW 225 0 min 0,0 UV-I 7,2 C 14,4 C 15,1 km/h (3 Bft)
26.06.2013 16:05 13,2 C 21,8 C 13,1 C 14,3 C 14,1 C 1,1 C 68 % 79 % 29 % 1021,9 hPa 0,0 l/m 8,4 km/h (2 Bft) SW 225 0 min 0,0 UV-I 7,4 C 14,1 C 8,0 km/h (2 Bft)
26.06.2013 16:10 13,1 C 21,8 C 13,1 C 14,3 C 14,3 C 1,2 C 69 % 80 % 32 % 1021,9 hPa 0,0 l/m 6,9 km/h (2 Bft) SW 225 0 min 0,0 UV-I 7,5 C 14,3 C 12,1 km/h (2 Bft)
26.06.2013 16:15 13,2 C 21,8 C 13,1 C 14,5 C 14,5 C 1,3 C 70 % 79 % 34 % 1022,3 hPa 0,0 l/m 6,4 km/h (2 Bft) SW 225 0 min 0,0 UV-I 7,9 C 14,5 C 6,1 km/h (2 Bft)
26.06.2013 16:20 13,2 C 21,8 C 13,3 C 14,9 C 14,9 C 1,7 C 70 % 80 % 45 % 1022,3 hPa 0,0 l/m 6,4 km/h (2 Bft) S-SO 157 0 min 0,0 UV-I 7,9 C 14,9 C 8,4 km/h (2 Bft)
26.06.2013 16:25 13,3 C 21,8 C 13,2 C 15,0 C 15,0 C 1,7 C 69 % 79 % 45 % 1022,3 hPa 0,0 l/m 6,4 km/h (2 Bft) S-SO 157 0 min 0,0 UV-I 7,7 C 15,0 C 11,9 km/h (2 Bft)
26.06.2013 16:30 13,2 C 21,8 C 13,1 C 14,6 C 14,6 C 1,4 C 68 % 79 % 37 % 1022,3 hPa 0,0 l/m 7,6 km/h (2 Bft) W 270 0 min 0,0 UV-I 7,4 C 14,6 C 5,8 km/h (2 Bft)
26.06.2013 16:35 13,2 C 21,8 C 13,0 C 14,4 C 14,4 C 1,2 C 68 % 79 % 32 % 1021,9 hPa 0,0 l/m 7,4 km/h (2 Bft) S-SW 202 0 min 0,0 UV-I 7,4 C 14,4 C 14,0 km/h (3 Bft)
26.06.2013 16:40 13,3 C 21,8 C 12,9 C 14,1 C 14,1 C 0,8 C 69 % 79 % 21 % 1021,9 hPa 0,0 l/m 7,2 km/h (2 Bft) S-SW 202 0 min 0,0 UV-I 7,7 C 14,1 C 8,0 km/h (2 Bft)
26.06.2013 16:45 13,3 C 21,8 C 13,0 C 14,2 C 14,2 C 0,9 C 70 % 79 % 24 % 1021,9 hPa 0,0 l/m 6,9 km/h (2 Bft) S-SO 157 0 min 0,0 UV-I 7,9 C 14,2 C 5,8 km/h (2 Bft)
26.06.2013 16:50 13,3 C 21,8 C 13,0 C 14,4 C 14,4 C 1,1 C 69 % 79 % 29 % 1021,9 hPa 0,0 l/m 6,0 km/h (2 Bft) W 270 0 min 0,0 UV-I 7,7 C 14,4 C 7,6 km/h (2 Bft)
26.06.2013 16:55 13,3 C 21,8 C 13,1 C 14,6 C 14,6 C 1,3 C 68 % 78 % 34 % 1022,3 hPa 0,0 l/m 7,1 km/h (2 Bft) SW 225 0 min 0,0 UV-I 7,5 C 14,6 C 11,3 km/h (2 Bft)
26.06.2013 17:00 13,2 C 21,8 C 13,2 C 14,8 C 14,8 C 1,6 C 69 % 79 % 42 % 1022,3 hPa 0,0 l/m 6,9 km/h (2 Bft) W-SW 247 0 min 0,0 UV-I 7,6 C 14,8 C 5,5 km/h (1 Bft)
26.06.2013 17:05 13,3 C 21,8 C 13,2 C 14,9 C 14,9 C 1,6 C 68 % 78 % 42 % 1022,3 hPa 0,0 l/m 6,4 km/h (2 Bft) W-SW 247 0 min 0,0 UV-I 7,5 C 14,9 C 6,1 km/h (2 Bft)
26.06.2013 17:10 13,4 C 21,8 C 13,2 C 15,0 C 15,0 C 1,6 C 68 % 78 % 42 % 1022,3 hPa 0,0 l/m 6,4 km/h (2 Bft) NW 315 0 min 0,0 UV-I 7,6 C 15,0 C 7,9 km/h (2 Bft)
26.06.2013 17:15 13,3 C 21,8 C 13,2 C 14,8 C 14,8 C 1,5 C 68 % 79 % 39 % 1022,1 hPa 0,0 l/m 6,0 km/h (2 Bft) N-NO 22 0 min 0,0 UV-I 7,5 C 14,8 C 5,6 km/h (1 Bft)
26.06.2013 17:20 13,3 C 21,8 C 13,2 C 14,6 C 14,6 C 1,3 C 69 % 79 % 34 % 1022,1 hPa 0,0 l/m 6,4 km/h (2 Bft) S-SW 202 0 min 0,0 UV-I 7,7 C 14,6 C 7,9 km/h (2 Bft)
26.06.2013 17:25 13,3 C 21,8 C 13,2 C 14,6 C 14,6 C 1,3 C 69 % 79 % 34 % 1022,1 hPa 0,0 l/m 6,4 km/h (2 Bft) SW 225 0 min 0,0 UV-I 7,7 C 14,6 C 6,4 km/h (2 Bft)
26.06.2013 17:30 13,4 C 21,8 C 13,2 C 14,7 C 14,7 C 1,3 C 69 % 79 % 34 % 1022,1 hPa 0,0 l/m 5,3 km/h (1 Bft) S 180 0 min 0,0 UV-I 7,8 C 14,7 C 7,1 km/h (2 Bft)
26.06.2013 17:35 13,5 C 21,8 C 13,2 C 14,7 C 14,7 C 1,2 C 70 % 79 % 32 % 1022,1 hPa 0,0 l/m 5,1 km/h (1 Bft) O-SO 112 0 min 0,0 UV-I 8,1 C 14,7 C 4,2 km/h (1 Bft)
26.06.2013 17:40 13,5 C 21,8 C 13,2 C 14,7 C 14,7 C 1,2 C 70 % 79 % 32 % 1022,1 hPa 0,0 l/m 5,8 km/h (2 Bft) W 270 0 min 0,0 UV-I 8,1 C 14,7 C 5,6 km/h (1 Bft)
26.06.2013 17:45 13,4 C 21,8 C 13,2 C 14,6 C 14,6 C 1,2 C 69 % 79 % 32 % 1022,1 hPa 0,0 l/m 6,0 km/h (2 Bft) SW 225 0 min 0,0 UV-I 7,8 C 14,6 C 8,2 km/h (2 Bft)
26.06.2013 17:50 13,4 C 21,8 C 13,0 C 14,4 C 14,4 C 1,0 C 70 % 79 % 26 % 1022,1 hPa 0,0 l/m 5,5 km/h (1 Bft) S 180 0 min 0,0 UV-I 8,0 C 14,4 C 4,2 km/h (1 Bft)
26.06.2013 17:55 13,3 C 21,8 C 13,1 C 14,3 C 14,3 C 1,0 C 69 % 79 % 26 % 1021,8 hPa 0,0 l/m 5,6 km/h (1 Bft) W 270 0 min 0,0 UV-I 7,7 C 14,3 C 8,7 km/h (2 Bft)
26.06.2013 18:00 13,4 C 21,8 C 13,2 C 14,5 C 14,5 C 1,1 C 69 % 79 % 29 % 1021,8 hPa 0,0 l/m 5,6 km/h (1 Bft) W-SW 247 0 min 0,0 UV-I 7,8 C 14,5 C 4,8 km/h (1 Bft)
26.06.2013 18:05 13,5 C 21,8 C 13,2 C 14,9 C 14,9 C 1,4 C 69 % 79 % 37 % 1021,8 hPa 0,0 l/m 5,5 km/h (1 Bft) S 180 0 min 0,0 UV-I 7,9 C 14,9 C 4,2 km/h (1 Bft)
26.06.2013 18:10 13,6 C 21,8 C 13,3 C 15,3 C 15,3 C 1,7 C 68 % 78 % 45 % 1021,8 hPa 0,0 l/m 5,1 km/h (1 Bft) W-NW 292 0 min 0,0 UV-I 7,8 C 15,3 C 8,4 km/h (2 Bft)
26.06.2013 18:15 13,6 C 21,8 C 13,5 C 15,4 C 15,4 C 1,8 C 67 % 78 % 47 % 1021,8 hPa 0,0 l/m 5,1 km/h (1 Bft) S 180 0 min 0,0 UV-I 7,6 C 15,4 C 12,2 km/h (2 Bft)
26.06.2013 18:20 13,7 C 21,8 C 13,2 C 15,1 C 15,1 C 1,4 C 67 % 78 % 37 % 1021,8 hPa 0,0 l/m 6,0 km/h (2 Bft) O-SO 112 0 min 0,0 UV-I 7,7 C 15,1 C 7,7 km/h (2 Bft)
26.06.2013 18:25 13,6 C 21,8 C 13,2 C 14,9 C 14,9 C 1,3 C 67 % 78 % 34 % 1021,8 hPa 0,0 l/m 6,3 km/h (2 Bft) S 180 0 min 0,0 UV-I 7,6 C 14,9 C 9,5 km/h (2 Bft)
26.06.2013 18:30 13,5 C 21,8 C 13,1 C 14,6 C 14,6 C 1,1 C 67 % 78 % 29 % 1021,8 hPa 0,0 l/m 5,1 km/h (1 Bft) W-SW 247 0 min 0,0 UV-I 7,5 C 14,6 C 5,6 km/h (1 Bft)
26.06.2013 18:35 13,5 C 21,8 C 13,1 C 14,4 C 14,4 C 0,9 C 68 % 78 % 24 % 1021,8 hPa 0,0 l/m 4,5 km/h (1 Bft) S 180 0 min 0,0 UV-I 7,7 C 14,4 C 6,3 km/h (2 Bft)
26.06.2013 18:41 13,5 C 21,8 C 13,0 C 14,1 C 14,1 C 0,6 C 67 % 78 % 16 % 1021,8 hPa 0,0 l/m 5,3 km/h (1 Bft) N 0 0 min 0,0 UV-I 7,5 C 14,1 C 7,2 km/h (2 Bft)
26.06.2013 19:00 13,4 C 21,8 C 12,9 C 14,1 C 14,1 C 0,7 C 67 % 77 % 18 % 1022,0 hPa 0,0 l/m 5,6 km/h (1 Bft) SW 225 0 min 0,0 UV-I 7,4 C 14,1 C 5,5 km/h (1 Bft)
26.06.2013 19:05 13,4 C 21,8 C 12,9 C 14,3 C 14,3 C 0,9 C 67 % 78 % 24 % 1022,0 hPa 0,0 l/m 5,5 km/h (1 Bft) S 180 0 min 0,0 UV-I 7,4 C 14,3 C 6,1 km/h (2 Bft)
26.06.2013 19:10 13,4 C 21,8 C 12,8 C 14,1 C 14,1 C 0,7 C 68 % 77 % 18 % 1022,0 hPa 0,0 l/m 5,1 km/h (1 Bft) W 270 0 min 0,0 UV-I 7,6 C 14,1 C 6,1 km/h (2 Bft)
26.06.2013 19:15 13,4 C 21,8 C 12,8 C 14,1 C 14,1 C 0,7 C 68 % 77 % 18 % 1021,9 hPa 0,0 l/m 5,1 km/h (1 Bft) NW 315 0 min 0,0 UV-I 7,6 C 14,1 C 3,5 km/h (1 Bft)
26.06.2013 19:20 13,5 C 21,8 C 12,8 C 14,0 C 14,0 C 0,5 C 68 % 77 % 13 % 1021,9 hPa 0,0 l/m 4,3 km/h (1 Bft) S-SO 157 0 min 0,0 UV-I 7,7 C 14,0 C 5,0 km/h (1 Bft)
26.06.2013 19:25 13,5 C 21,8 C 12,8 C 14,0 C 14,0 C 0,5 C 69 % 77 % 13 % 1021,9 hPa 0,0 l/m 3,9 km/h (1 Bft) S 180 0 min 0,0 UV-I 7,9 C 14,0 C 5,5 km/h (1 Bft)
26.06.2013 19:30 13,4 C 21,8 C 12,8 C 14,0 C 14,0 C 0,6 C 69 % 77 % 16 % 1021,9 hPa 0,0 l/m 3,4 km/h (1 Bft) S-SW 202 0 min 0,0 UV-I 7,8 C 14,0 C 2,6 km/h (1 Bft)
26.06.2013 19:35 13,5 C 21,8 C 12,8 C 13,9 C 13,9 C 0,4 C 70 % 78 % 11 % 1021,7 hPa 0,0 l/m 2,9 km/h (1 Bft) W 270 0 min 0,0 UV-I 8,1 C 13,9 C 1,8 km/h (1 Bft)
26.06.2013 19:40 13,5 C 21,8 C 12,9 C 13,9 C 13,9 C 0,4 C 70 % 78 % 11 % 1021,7 hPa 0,0 l/m 2,7 km/h (1 Bft) S-SW 202 0 min 0,0 UV-I 8,1 C 13,9 C 4,7 km/h (1 Bft)
26.06.2013 19:45 13,5 C 21,8 C 12,8 C 13,9 C 13,9 C 0,4 C 70 % 78 % 11 % 1021,7 hPa 0,0 l/m 2,9 km/h (1 Bft) W-SW 247 0 min 0,0 UV-I 8,1 C 13,9 C 4,3 km/h (1 Bft)
26.06.2013 19:50 13,4 C 21,8 C 12,9 C 13,8 C 13,8 C 0,4 C 70 % 78 % 11 % 1021,7 hPa 0,0 l/m 3,2 km/h (1 Bft) S 180 0 min 0,0 UV-I 8,0 C 13,8 C 3,9 km/h (1 Bft)
26.06.2013 19:55 13,4 C 21,8 C 12,8 C 13,7 C 13,7 C 0,3 C 70 % 78 % 8 % 1021,8 hPa 0,0 l/m 4,2 km/h (1 Bft) SO 135 0 min 0,0 UV-I 8,0 C 13,7 C 6,1 km/h (2 Bft)
26.06.2013 20:00 13,3 C 21,8 C 12,6 C 13,6 C 13,6 C 0,3 C 70 % 77 % 8 % 1021,8 hPa 0,0 l/m 4,7 km/h (1 Bft) S 180 0 min 0,0 UV-I 7,9 C 13,6 C 5,6 km/h (1 Bft)
26.06.2013 20:05 13,3 C 21,8 C 12,7 C 13,4 C 13,4 C 0,1 C 69 % 77 % 3 % 1021,8 hPa 0,0 l/m 5,0 km/h (1 Bft) S-SO 157 0 min 0,0 UV-I 7,7 C 13,4 C 8,4 km/h (2 Bft)
26.06.2013 20:10 13,3 C 21,8 C 12,5 C 13,3 C 13,3 C 0,0 C 70 % 77 % 0 % 1021,8 hPa 0,0 l/m 5,3 km/h (1 Bft) N-NW 337 0 min 0,0 UV-I 7,9 C 13,3 C 6,1 km/h (2 Bft)
26.06.2013 20:15 13,1 C 21,8 C 12,4 C 13,1 C 13,1 C 0,0 C 70 % 77 % 0 % 1021,6 hPa 0,0 l/m 5,6 km/h (1 Bft) SW 225 0 min 0,0 UV-I 7,8 C 13,1 C 4,3 km/h (1 Bft)
26.06.2013 20:20 13,1 C 21,8 C 12,4 C 13,1 C 13,1 C 0,0 C 70 % 77 % 0 % 1021,6 hPa 0,0 l/m 6,0 km/h (2 Bft) W-SW 247 0 min 0,0 UV-I 7,8 C 13,1 C 11,6 km/h (2 Bft)
26.06.2013 20:25 13,1 C 21,8 C 12,4 C 13,1 C 13,0 C 0,0 C 69 % 77 % 0 % 1021,6 hPa 0,0 l/m 5,6 km/h (1 Bft) SW 225 0 min 0,0 UV-I 7,5 C 13,0 C 4,7 km/h (1 Bft)
26.06.2013 20:30 13,1 C 21,8 C 12,3 C 13,0 C 12,9 C 0,0 C 69 % 77 % 0 % 1021,6 hPa 0,0 l/m 5,0 km/h (1 Bft) S-SW 202 0 min 0,0 UV-I 7,5 C 12,9 C 7,1 km/h (2 Bft)
26.06.2013 20:35 12,9 C 21,8 C 12,3 C 12,9 C 12,8 C 0,0 C 70 % 77 % 0 % 1021,6 hPa 0,0 l/m 4,8 km/h (1 Bft) S-SW 202 0 min 0,0 UV-I 7,6 C 12,8 C 5,5 km/h (1 Bft)
26.06.2013 20:40 12,8 C 21,8 C 12,3 C 12,8 C 12,7 C 0,0 C 70 % 77 % 0 % 1021,6 hPa 0,0 l/m 4,2 km/h (1 Bft) S 180 0 min 0,0 UV-I 7,5 C 12,7 C 3,1 km/h (1 Bft)
26.06.2013 20:45 12,9 C 21,8 C 12,1 C 12,8 C 12,6 C 0,0 C 70 % 78 % 0 % 1021,6 hPa 0,0 l/m 4,0 km/h (1 Bft) S 180 0 min 0,0 UV-I 7,6 C 12,6 C 8,5 km/h (2 Bft)
26.06.2013 20:50 12,7 C 21,8 C 12,1 C 12,6 C 12,4 C 0,0 C 71 % 78 % 0 % 1021,6 hPa 0,0 l/m 4,0 km/h (1 Bft) NW 315 0 min 0,0 UV-I 7,6 C 12,4 C 3,2 km/h (1 Bft)
26.06.2013 20:55 12,7 C 21,8 C 12,0 C 12,6 C 12,4 C 0,0 C 71 % 78 % 0 % 1021,8 hPa 0,0 l/m 4,2 km/h (1 Bft) S-SO 157 0 min 0,0 UV-I 7,6 C 12,4 C 3,9 km/h (1 Bft)
26.06.2013 21:00 12,7 C 21,8 C 12,0 C 12,6 C 12,3 C 0,0 C 72 % 78 % 0 % 1021,8 hPa 0,0 l/m 4,0 km/h (1 Bft) SW 225 0 min 0,0 UV-I 7,8 C 12,3 C 7,9 km/h (2 Bft)
26.06.2013 21:05 12,7 C 21,8 C 12,1 C 12,6 C 12,3 C 0,0 C 72 % 78 % 0 % 1021,8 hPa 0,0 l/m 3,9 km/h (1 Bft) S 180 0 min 0,0 UV-I 7,8 C 12,3 C 6,4 km/h (2 Bft)
26.06.2013 21:10 12,5 C 21,8 C 12,0 C 12,4 C 12,3 C 0,0 C 72 % 79 % 0 % 1021,8 hPa 0,0 l/m 4,2 km/h (1 Bft) S-SW 202 0 min 0,0 UV-I 7,6 C 12,3 C 4,8 km/h (1 Bft)
26.06.2013 21:15 12,5 C 21,8 C 12,0 C 12,4 C 12,2 C 0,0 C 72 % 79 % 0 % 1021,8 hPa 0,0 l/m 4,3 km/h (1 Bft) SW 225 0 min 0,0 UV-I 7,6 C 12,2 C 5,0 km/h (1 Bft)
26.06.2013 21:20 12,4 C 21,8 C 12,0 C 12,3 C 12,2 C 0,0 C 73 % 79 % 0 % 1021,8 hPa 0,0 l/m 4,8 km/h (1 Bft) SW 225 0 min 0,0 UV-I 7,7 C 12,2 C 11,1 km/h (2 Bft)
26.06.2013 21:25 12,4 C 21,8 C 11,9 C 12,3 C 12,2 C 0,0 C 73 % 79 % 0 % 1021,8 hPa 0,0 l/m 4,8 km/h (1 Bft) S-SW 202 0 min 0,0 UV-I 7,7 C 12,2 C 8,9 km/h (2 Bft)
26.06.2013 21:30 12,4 C 21,8 C 11,9 C 12,3 C 12,1 C 0,0 C 74 % 79 % 0 % 1021,8 hPa 0,0 l/m 5,0 km/h (1 Bft) S 180 0 min 0,0 UV-I 7,9 C 12,1 C 5,6 km/h (1 Bft)
26.06.2013 21:35 12,5 C 21,8 C 11,8 C 12,4 C 12,1 C 0,0 C 74 % 79 % 0 % 1022,1 hPa 0,0 l/m 5,0 km/h (1 Bft) S 180 0 min 0,0 UV-I 8,0 C 12,1 C 7,7 km/h (2 Bft)
26.06.2013 21:40 12,4 C 21,8 C 11,8 C 12,3 C 12,1 C 0,0 C 75 % 79 % 0 % 1022,1 hPa 0,0 l/m 5,0 km/h (1 Bft) W 270 0 min 0,0 UV-I 8,1 C 12,1 C 3,4 km/h (1 Bft)
26.06.2013 21:45 12,3 C 21,8 C 11,9 C 12,2 C 12,1 C 0,0 C 75 % 79 % 0 % 1022,1 hPa 0,0 l/m 5,1 km/h (1 Bft) SW 225 0 min 0,0 UV-I 8,0 C 12,1 C 6,1 km/h (2 Bft)
26.06.2013 21:50 12,3 C 21,8 C 11,8 C 12,0 C 11,5 C 0,0 C 76 % 79 % 0 % 1022,1 hPa 0,0 l/m 4,7 km/h (1 Bft) SW 225 0 min 0,0 UV-I 8,2 C 11,5 C 7,4 km/h (2 Bft)
26.06.2013 21:55 12,1 C 21,8 C 11,8 C 11,8 C 11,2 C 0,0 C 76 % 80 % 0 % 1022,2 hPa 0,0 l/m 4,2 km/h (1 Bft) W 270 0 min 0,0 UV-I 8,0 C 11,2 C 4,8 km/h (1 Bft)
26.06.2013 22:00 12,0 C 21,8 C 11,7 C 11,7 C 11,1 C 0,0 C 77 % 80 % 0 % 1022,2 hPa 0,0 l/m 4,0 km/h (1 Bft) W-SW 247 0 min 0,0 UV-I 8,1 C 11,1 C 6,6 km/h (2 Bft)
26.06.2013 22:05 11,9 C 21,8 C 11,6 C 11,7 C 11,2 C 0,0 C 76 % 80 % 0 % 1022,2 hPa 0,0 l/m 4,5 km/h (1 Bft) S 180 0 min 0,0 UV-I 7,8 C 11,2 C 4,5 km/h (1 Bft)
26.06.2013 22:11 11,9 C 21,9 C 11,6 C 11,7 C 11,3 C 0,0 C 76 % 80 % 0 % 1022,2 hPa 0,0 l/m 4,5 km/h (1 Bft) S 180 0 min 0,0 UV-I 7,8 C 11,3 C 4,5 km/h (1 Bft)
26.06.2013 22:15 11,9 C 21,9 C 11,7 C 11,7 C 11,4 C 0,0 C 76 % 80 % 0 % 1022,2 hPa 0,0 l/m 4,3 km/h (1 Bft) S 180 0 min 0,0 UV-I 7,8 C 11,4 C 6,6 km/h (2 Bft)
26.06.2013 22:20 11,8 C 21,9 C 11,6 C 11,7 C 11,5 C 0,0 C 76 % 80 % 0 % 1022,2 hPa 0,0 l/m 4,0 km/h (1 Bft) S-SO 157 0 min 0,0 UV-I 7,7 C 11,5 C 5,3 km/h (1 Bft)
26.06.2013 22:25 11,9 C 21,9 C 11,6 C 11,8 C 11,5 C 0,0 C 77 % 80 % 0 % 1022,2 hPa 0,0 l/m 3,9 km/h (1 Bft) W-SW 247 0 min 0,0 UV-I 8,0 C 11,5 C 6,6 km/h (2 Bft)
26.06.2013 22:30 11,8 C 21,9 C 11,5 C 11,7 C 11,4 C 0,0 C 77 % 80 % 0 % 1022,2 hPa 0,0 l/m 3,9 km/h (1 Bft) W-SW 247 0 min 0,0 UV-I 7,9 C 11,4 C 8,0 km/h (2 Bft)
26.06.2013 22:35 11,7 C 21,9 C 11,5 C 11,6 C 11,4 C 0,0 C 77 % 80 % 0 % 1022,2 hPa 0,0 l/m 3,9 km/h (1 Bft) S 180 0 min 0,0 UV-I 7,8 C 11,4 C 3,7 km/h (1 Bft)
26.06.2013 22:40 11,7 C 21,9 C 11,5 C 11,6 C 11,3 C 0,0 C 77 % 80 % 0 % 1022,2 hPa 0,0 l/m 3,4 km/h (1 Bft) W 270 0 min 0,0 UV-I 7,8 C 11,3 C 3,2 km/h (1 Bft)
26.06.2013 22:45 11,6 C 21,9 C 11,4 C 11,5 C 11,3 C 0,0 C 77 % 80 % 0 % 1022,2 hPa 0,0 l/m 2,7 km/h (1 Bft) W-SW 247 0 min 0,0 UV-I 7,7 C 11,3 C 5,0 km/h (1 Bft)
26.06.2013 22:50 11,7 C 21,9 C 11,5 C 11,5 C 11,2 C 0,0 C 77 % 80 % 0 % 1022,2 hPa 0,0 l/m 2,4 km/h (1 Bft) W-SW 247 0 min 0,0 UV-I 7,8 C 11,2 C 3,5 km/h (1 Bft)
26.06.2013 22:55 11,6 C 21,9 C 11,5 C 11,4 C 11,1 C 0,0 C 78 % 80 % 0 % 1022,4 hPa 0,0 l/m 2,6 km/h (1 Bft) S-SW 202 0 min 0,0 UV-I 7,9 C 11,1 C 4,0 km/h (1 Bft)
26.06.2013 23:00 11,5 C 21,9 C 11,5 C 11,4 C 11,1 C 0,0 C 78 % 81 % 0 % 1022,4 hPa 0,0 l/m 2,7 km/h (1 Bft) W 270 0 min 0,0 UV-I 7,8 C 11,1 C 3,7 km/h (1 Bft)
26.06.2013 23:05 11,5 C 21,9 C 11,4 C 11,4 C 11,1 C 0,0 C 78 % 81 % 0 % 1022,4 hPa 0,0 l/m 2,9 km/h (1 Bft) W 270 0 min 0,0 UV-I 7,8 C 11,1 C 5,1 km/h (1 Bft)
26.06.2013 23:10 11,5 C 21,9 C 11,3 C 11,4 C 11,1 C 0,0 C 78 % 81 % 0 % 1022,4 hPa 0,0 l/m 2,9 km/h (1 Bft) S-SW 202 0 min 0,0 UV-I 7,8 C 11,1 C 3,2 km/h (1 Bft)
26.06.2013 23:15 11,4 C 21,9 C 11,3 C 11,3 C 11,0 C 0,0 C 78 % 81 % 0 % 1022,0 hPa 0,0 l/m 2,6 km/h (1 Bft) SW 225 0 min 0,0 UV-I 7,7 C 11,0 C 5,0 km/h (1 Bft)
26.06.2013 23:20 11,3 C 21,9 C 11,3 C 11,2 C 11,0 C 0,0 C 79 % 81 % 0 % 1022,0 hPa 0,0 l/m 2,3 km/h (1 Bft) W-NW 292 0 min 0,0 UV-I 7,8 C 11,0 C 3,7 km/h (1 Bft)
26.06.2013 23:25 11,3 C 21,9 C 11,3 C 11,2 C 10,9 C 0,0 C 79 % 81 % 0 % 1022,0 hPa 0,0 l/m 2,1 km/h (1 Bft) S-SO 157 0 min 0,0 UV-I 7,8 C 10,9 C 0,0 km/h (0 Bft)
26.06.2013 23:30 11,3 C 21,9 C 11,3 C 11,2 C 10,9 C 0,0 C 79 % 81 % 0 % 1022,0 hPa 0,0 l/m 1,6 km/h (1 Bft) W-SW 247 0 min 0,0 UV-I 7,8 C 10,9 C 2,1 km/h (1 Bft)
26.06.2013 23:35 11,2 C 21,9 C 11,3 C 11,0 C 10,7 C 0,0 C 79 % 81 % 0 % 1022,4 hPa 0,0 l/m 1,3 km/h (1 Bft) SW 225 0 min 0,0 UV-I 7,7 C 10,7 C 2,9 km/h (1 Bft)
26.06.2013 23:40 11,3 C 21,9 C 11,3 C 11,0 C 10,5 C 0,0 C 80 % 81 % 0 % 1022,4 hPa 0,0 l/m 1,1 km/h (1 Bft) S 180 0 min 0,0 UV-I 8,0 C 10,5 C 0,0 km/h (0 Bft)
26.06.2013 23:45 11,2 C 21,9 C 11,2 C 11,0 C 10,5 C 0,0 C 80 % 82 % 0 % 1022,4 hPa 0,0 l/m 0,8 km/h (0 Bft) SW 225 0 min 0,0 UV-I 7,9 C 10,5 C 0,0 km/h (0 Bft)
26.06.2013 23:50 11,1 C 21,9 C 11,2 C 10,9 C 10,4 C 0,0 C 80 % 82 % 0 % 1022,4 hPa 0,0 l/m 0,5 km/h (0 Bft) SW 225 0 min 0,0 UV-I 7,8 C 10,4 C 2,1 km/h (1 Bft)
26.06.2013 23:55 11,1 C 21,9 C 11,2 C 10,9 C 10,4 C 0,0 C 80 % 82 % 0 % 1022,4 hPa 0,0 l/m 1,4 km/h (1 Bft) SW 225 0 min 0,0 UV-I 7,8 C 10,4 C 3,7 km/h (1 Bft)
_ Min-Zeit 06:00 13:25 06:15 03:40 03:40 03:40 16:00 19:00 00:00 04:35 - 23:50 - - - 00:00 11:05 11:00 23:25
Minimum _ 8,4 C 21,8 C 9,7 C 8,7 C 8,7 C 0,0 C 67 % 77 % 0 % 1019,8 hPa - 0,5 km/h (0 Bft) - - - 0,0 UV-I 6,9 C 8,0 C 0,0 km/h (0 Bft)
_ Max-Zeit 18:20 00:05 13:50 13:50 13:50 13:50 03:20 05:25 13:50 22:55 02:00 16:00 - - 12:41 00:00 13:20 13:50 13:00
Maximum _ 13,7 C 23,6 C 13,9 C 17,0 C 17,0 C 3,8 C 91 % 91 % 100 % 1022,4 hPa 0,7 l/m 8,9 km/h
SW (2 Bft)
- - 6 min 0,0 UV-I 8,6 C 17,0 C 23,0 km/h
W-SW (4 Bft)
Durchschnitt _ 10,8 C 22,4 C 11,5 C 11,7 C 11,7 C 0,9 C 81 % 85 % 22 % 1021,3 hPa #8,9 l/m 5,0 km/h (1 Bft) W-SW - #1:01 h 0,0 UV-I 7,6 C 11,6 C 7,0 km/h (2 Bft)
2013 www.wetterstation-wechselburg.de